Time,TemperatureF,DewpointF,PressureIn,WindDirection,WindDirectionDegrees,WindSpeedMPH,WindSpeedGustMPH,Humidity,HourlyPrecipIn,Conditions,Clouds,dailyrainin,SoftwareType,DateUTC
2013-09-25 00:11:00,48.2,45.1,29.86,ENE,67,0.0,-999.0,89,-99.99,,,0.00,Acu-Link.com,2013-09-25 04:11:00,
2013-09-25 00:26:00,47.7,44.9,29.86,ENE,67,0.0,-999.0,90,-99.99,,,0.00,Acu-Link.com,2013-09-25 04:26:00,
2013-09-25 00:41:00,47.5,45.0,29.87,SSE,157,0.0,-999.0,91,-99.99,,,0.00,Acu-Link.com,2013-09-25 04:41:00,
2013-09-25 00:57:00,47.1,44.9,29.87,WNW,292,1.7,-999.0,92,-99.99,,,0.00,Acu-Link.com,2013-09-25 04:57:00,
2013-09-25 01:12:00,47.5,45.9,29.88,SSW,202,0.0,-999.0,94,-99.99,,,0.00,Acu-Link.com,2013-09-25 05:12:00,
2013-09-25 01:27:00,47.8,46.2,29.89,SE,135,0.0,-999.0,94,-99.99,,,0.00,Acu-Link.com,2013-09-25 05:27:00,
2013-09-25 01:42:00,47.3,45.4,29.90,SE,135,0.0,-999.0,93,-99.99,,,0.00,Acu-Link.com,2013-09-25 05:42:00,
2013-09-25 01:57:00,47.3,45.4,29.89,SE,135,0.0,-999.0,93,-99.99,,,0.00,Acu-Link.com,2013-09-25 05:57:00,
2013-09-25 02:12:00,46.9,45.0,29.90,SSE,157,0.0,-999.0,93,-99.99,,,0.00,Acu-Link.com,2013-09-25 06:12:00,
2013-09-25 02:27:00,46.6,44.7,29.90,ENE,67,0.0,-999.0,93,-99.99,,,0.00,Acu-Link.com,2013-09-25 06:27:00,
2013-09-25 02:42:00,46.4,44.5,29.90,NW,315,1.1,-999.0,93,-99.99,,,0.00,Acu-Link.com,2013-09-25 06:42:00,
2013-09-25 02:57:00,46.0,44.1,29.89,East,90,0.0,-999.0,93,-99.99,,,0.00,Acu-Link.com,2013-09-25 06:57:00,
2013-09-25 03:12:00,45.5,43.6,29.89,South,180,0.0,-999.0,93,-99.99,,,0.00,Acu-Link.com,2013-09-25 07:12:00,
2013-09-25 03:28:00,45.3,43.4,29.89,WSW,247,0.0,-999.0,93,-99.99,,,0.00,Acu-Link.com,2013-09-25 07:28:00,
2013-09-25 03:43:00,45.0,43.4,29.89,SSW,202,2.2,-999.0,94,-99.99,,,0.00,Acu-Link.com,2013-09-25 07:43:00,
2013-09-25 03:58:00,45.1,43.5,29.89,WNW,292,1.1,-999.0,94,-99.99,,,0.00,Acu-Link.com,2013-09-25 07:58:00,
2013-09-25 04:14:00,45.0,43.4,29.88,SW,225,0.0,-999.0,94,-99.99,,,0.00,Acu-Link.com,2013-09-25 08:14:00,
2013-09-25 04:29:00,44.6,43.0,29.89,NNE,22,0.0,-999.0,94,-99.99,,,0.00,Acu-Link.com,2013-09-25 08:29:00,
2013-09-25 04:45:00,43.5,41.6,29.88,NE,45,0.0,-999.0,93,-99.99,,,0.00,Acu-Link.com,2013-09-25 08:45:00,
2013-09-25 05:00:00,43.5,41.6,29.88,ENE,67,0.0,-999.0,93,-99.99,,,0.00,Acu-Link.com,2013-09-25 09:00:00,
2013-09-25 05:15:00,43.0,41.1,29.89,NE,45,0.0,-999.0,93,-99.99,,,0.00,Acu-Link.com,2013-09-25 09:15:00,
2013-09-25 05:31:00,42.8,40.9,29.88,ENE,67,0.0,-999.0,93,-99.99,,,0.00,Acu-Link.com,2013-09-25 09:31:00,
2013-09-25 05:46:00,42.8,41.2,29.89,ESE,112,0.0,-999.0,94,-99.99,,,0.00,Acu-Link.com,2013-09-25 09:46:00,
2013-09-25 06:02:00,43.9,42.6,29.90,South,180,0.0,-999.0,95,-99.99,,,0.00,Acu-Link.com,2013-09-25 10:02:00,
2013-09-25 06:17:00,44.2,42.9,29.89,East,90,0.0,-999.0,95,-99.99,,,0.00,Acu-Link.com,2013-09-25 10:17:00,
2013-09-25 06:33:00,44.2,43.1,29.89,ENE,67,0.0,-999.0,96,-99.99,,,0.00,Acu-Link.com,2013-09-25 10:33:00,
2013-09-25 06:48:00,44.4,43.3,29.90,ESE,112,0.0,-999.0,96,-99.99,,,0.00,Acu-Link.com,2013-09-25 10:48:00,
2013-09-25 07:03:00,44.8,43.7,29.89,NNE,22,0.0,-999.0,96,-99.99,,,0.00,Acu-Link.com,2013-09-25 11:03:00,
2013-09-25 07:19:00,44.6,43.5,29.90,East,90,1.7,-999.0,96,-99.99,,,0.00,Acu-Link.com,2013-09-25 11:19:00,
2013-09-25 07:34:00,44.4,43.3,29.90,East,90,0.0,-999.0,96,-99.99,,,0.00,Acu-Link.com,2013-09-25 11:34:00,
2013-09-25 07:49:00,44.8,43.7,29.90,ENE,67,0.0,-999.0,96,-99.99,,,0.00,Acu-Link.com,2013-09-25 11:49:00,
2013-09-25 08:04:00,45.5,44.2,29.91,SW,225,1.7,-999.0,95,-99.99,,,0.00,Acu-Link.com,2013-09-25 12:04:00,
2013-09-25 08:19:00,45.7,44.1,29.91,WNW,292,0.0,-999.0,94,-99.99,,,0.00,Acu-Link.com,2013-09-25 12:19:00,
2013-09-25 08:34:00,46.0,44.1,29.91,West,270,2.2,-999.0,93,-99.99,,,0.00,Acu-Link.com,2013-09-25 12:34:00,
2013-09-25 08:49:00,46.2,44.0,29.91,SE,135,0.0,-999.0,92,-99.99,,,0.00,Acu-Link.com,2013-09-25 12:49:00,
2013-09-25 09:05:00,47.3,45.1,29.92,NNW,337,3.2,-999.0,92,-99.99,,,0.00,Acu-Link.com,2013-09-25 13:05:00,
2013-09-25 09:20:00,48.0,44.9,29.92,SSW,202,2.2,-999.0,89,-99.99,,,0.00,Acu-Link.com,2013-09-25 13:20:00,
2013-09-25 09:35:00,49.1,45.1,29.93,NW,315,1.7,-999.0,86,-99.99,,,0.00,Acu-Link.com,2013-09-25 13:35:00,
2013-09-25 09:50:00,50.0,45.4,29.92,West,270,3.7,-999.0,84,-99.99,,,0.00,Acu-Link.com,2013-09-25 13:50:00,
2013-09-25 10:05:00,50.7,45.7,29.92,SE,135,2.2,-999.0,83,-99.99,,,0.00,Acu-Link.com,2013-09-25 14:05:00,
2013-09-25 10:20:00,52.0,46.4,29.92,West,270,2.7,-999.0,81,-99.99,,,0.00,Acu-Link.com,2013-09-25 14:20:00,
2013-09-25 10:36:00,52.7,46.4,29.92,South,180,1.7,-999.0,79,-99.99,,,0.00,Acu-Link.com,2013-09-25 14:36:00,
2013-09-25 10:51:00,54.3,47.2,29.91,NW,315,3.2,-999.0,77,-99.99,,,0.00,Acu-Link.com,2013-09-25 14:51:00,
2013-09-25 11:06:00,56.1,46.8,29.91,WNW,292,2.2,-999.0,71,-99.99,,,0.00,Acu-Link.com,2013-09-25 15:06:00,
2013-09-25 11:21:00,61.5,47.9,29.91,West,270,4.7,-999.0,61,-99.99,,,0.00,Acu-Link.com,2013-09-25 15:21:00,
2013-09-25 11:36:00,66.9,48.7,29.90,WNW,292,3.7,-999.0,52,-99.99,,,0.00,Acu-Link.com,2013-09-25 15:36:00,
2013-09-25 11:51:00,66.2,47.5,29.89,West,270,1.7,-999.0,51,-99.99,,,0.00,Acu-Link.com,2013-09-25 15:51:00,
2013-09-25 12:06:00,65.3,46.7,29.89,SE,135,0.0,-999.0,51,-99.99,,,0.00,Acu-Link.com,2013-09-25 16:06:00,
2013-09-25 12:21:00,68.5,47.5,29.89,South,180,1.1,-999.0,47,-99.99,,,0.00,Acu-Link.com,2013-09-25 16:21:00,
2013-09-25 12:36:00,74.8,46.8,29.88,NE,45,2.7,-999.0,37,-99.99,,,0.00,Acu-Link.com,2013-09-25 16:36:00,
2013-09-25 12:52:00,78.1,45.8,29.87,West,270,1.7,-999.0,32,-99.99,,,0.00,Acu-Link.com,2013-09-25 16:52:00,
2013-09-25 13:07:00,73.9,45.3,29.87,West,270,4.2,-999.0,36,-99.99,,,0.00,Acu-Link.com,2013-09-25 17:07:00,
2013-09-25 13:22:00,71.2,45.0,29.86,SSW,202,2.2,-999.0,39,-99.99,,,0.00,Acu-Link.com,2013-09-25 17:22:00,
2013-09-25 13:37:00,69.8,44.4,29.85,East,90,0.0,-999.0,40,-99.99,,,0.00,Acu-Link.com,2013-09-25 17:37:00,
2013-09-25 14:07:00,75.7,46.8,29.82,West,270,2.2,-999.0,36,-99.99,,,0.00,Acu-Link.com,2013-09-25 18:07:00,
2013-09-25 14:22:00,79.3,47.7,29.82,WNW,292,2.7,-999.0,33,-99.99,,,0.00,Acu-Link.com,2013-09-25 18:22:00,
2013-09-25 14:37:00,80.2,46.8,29.81,SSE,157,1.7,-999.0,31,-99.99,,,0.00,Acu-Link.com,2013-09-25 18:37:00,
2013-09-25 14:52:00,80.2,46.8,29.80,SE,135,1.7,-999.0,31,-99.99,,,0.00,Acu-Link.com,2013-09-25 18:52:00,
2013-09-25 15:08:00,81.7,46.3,29.80,East,90,1.7,-999.0,29,-99.99,,,0.00,Acu-Link.com,2013-09-25 19:08:00,
2013-09-25 15:23:00,79.5,46.2,29.79,WNW,292,1.7,-999.0,31,-99.99,,,0.00,Acu-Link.com,2013-09-25 19:23:00,
2013-09-25 15:38:00,78.6,46.3,29.79,SSE,157,1.7,-999.0,32,-99.99,,,0.00,Acu-Link.com,2013-09-25 19:38:00,
2013-09-25 15:53:00,79.5,46.2,29.78,ENE,67,0.0,-999.0,31,-99.99,,,0.00,Acu-Link.com,2013-09-25 19:53:00,
2013-09-25 16:08:00,83.3,47.7,29.77,NNE,22,1.7,-999.0,29,-99.99,,,0.00,Acu-Link.com,2013-09-25 20:08:00,
2013-09-25 16:23:00,84.2,48.5,29.77,ESE,112,0.0,-999.0,29,-99.99,,,0.00,Acu-Link.com,2013-09-25 20:23:00,
2013-09-25 16:38:00,79.9,46.5,29.77,ESE,112,1.1,-999.0,31,-99.99,,,0.00,Acu-Link.com,2013-09-25 20:38:00,
2013-09-25 16:54:00,77.2,46.6,29.77,ESE,112,0.0,-999.0,34,-99.99,,,0.00,Acu-Link.com,2013-09-25 20:54:00,
2013-09-25 17:09:00,77.0,48.7,29.77,West,270,0.0,-999.0,37,-99.99,,,0.00,Acu-Link.com,2013-09-25 21:09:00,
2013-09-25 17:24:00,72.9,48.4,29.76,South,180,0.0,-999.0,42,-99.99,,,0.00,Acu-Link.com,2013-09-25 21:24:00,
2013-09-25 17:40:00,72.0,48.3,29.77,SE,135,0.0,-999.0,43,-99.99,,,0.00,Acu-Link.com,2013-09-25 21:40:00,
2013-09-25 17:55:00,71.1,49.3,29.76,SE,135,0.0,-999.0,46,-99.99,,,0.00,Acu-Link.com,2013-09-25 21:55:00,
2013-09-25 18:10:00,69.6,48.5,29.76,SSE,157,0.0,-999.0,47,-99.99,,,0.00,Acu-Link.com,2013-09-25 22:10:00,
2013-09-25 18:25:00,68.7,50.4,29.76,WSW,247,0.0,-999.0,52,-99.99,,,0.00,Acu-Link.com,2013-09-25 22:25:00,
2013-09-25 18:41:00,67.6,52.3,29.76,NE,45,0.0,-999.0,58,-99.99,,,0.00,Acu-Link.com,2013-09-25 22:41:00,
2013-09-25 18:57:00,66.2,52.8,29.77,ENE,67,0.0,-999.0,62,-99.99,,,0.00,Acu-Link.com,2013-09-25 22:57:00,
2013-09-25 19:13:00,64.4,51.5,29.77,NE,45,0.0,-999.0,63,-99.99,,,0.00,Acu-Link.com,2013-09-25 23:13:00,
2013-09-25 19:28:00,62.1,51.8,29.77,NNE,22,0.0,-999.0,69,-99.99,,,0.00,Acu-Link.com,2013-09-25 23:28:00,
2013-09-25 19:45:00,60.6,50.8,29.77,SE,135,0.0,-999.0,70,-99.99,,,0.00,Acu-Link.com,2013-09-25 23:45:00,
2013-09-25 20:01:00,58.8,50.2,29.77,East,90,0.0,-999.0,73,-99.99,,,0.00,Acu-Link.com,2013-09-26 00:01:00,
2013-09-25 20:16:00,57.9,48.6,29.78,ESE,112,0.0,-999.0,71,-99.99,,,0.00,Acu-Link.com,2013-09-26 00:16:00,
2013-09-25 20:31:00,56.8,47.9,29.79,East,90,0.0,-999.0,72,-99.99,,,0.00,Acu-Link.com,2013-09-26 00:31:00,
2013-09-25 20:46:00,55.9,49.1,29.79,NNE,22,0.0,-999.0,78,-99.99,,,0.00,Acu-Link.com,2013-09-26 00:46:00,
2013-09-25 21:01:00,55.0,48.6,29.80,WNW,292,0.0,-999.0,79,-99.99,,,0.00,Acu-Link.com,2013-09-26 01:01:00,
2013-09-25 21:16:00,54.9,48.2,29.81,SE,135,0.0,-999.0,78,-99.99,,,0.00,Acu-Link.com,2013-09-26 01:16:00,
2013-09-25 21:31:00,53.8,47.8,29.81,East,90,0.0,-999.0,80,-99.99,,,0.00,Acu-Link.com,2013-09-26 01:31:00,
2013-09-25 21:47:00,53.6,48.6,29.82,East,90,0.0,-999.0,83,-99.99,,,0.00,Acu-Link.com,2013-09-26 01:47:00,
2013-09-25 22:02:00,52.9,47.6,29.82,NE,45,0.0,-999.0,82,-99.99,,,0.00,Acu-Link.com,2013-09-26 02:02:00,
2013-09-25 22:17:00,52.3,47.6,29.83,SE,135,0.0,-999.0,84,-99.99,,,0.00,Acu-Link.com,2013-09-26 02:17:00,
2013-09-25 22:32:00,51.6,47.2,29.83,North,0,0.0,-999.0,85,-99.99,,,0.00,Acu-Link.com,2013-09-26 02:32:00,
2013-09-25 22:47:00,50.9,46.6,29.85,ESE,112,0.0,-999.0,85,-99.99,,,0.00,Acu-Link.com,2013-09-26 02:47:00,
2013-09-25 23:02:00,50.5,46.2,29.85,NNE,22,0.0,-999.0,85,-99.99,,,0.00,Acu-Link.com,2013-09-26 03:02:00,
2013-09-25 23:17:00,49.8,45.5,29.85,East,90,0.0,-999.0,85,-99.99,,,0.00,Acu-Link.com,2013-09-26 03:17:00,
2013-09-25 23:32:00,49.6,45.6,29.86,East,90,0.0,-999.0,86,-99.99,,,0.00,Acu-Link.com,2013-09-26 03:32:00,
2013-09-25 23:47:00,49.3,45.9,29.86,North,0,0.0,-999.0,88,-99.99,,,0.00,Acu-Link.com,2013-09-26 03:47:00,